Time;durP1;ratioP1;P1;durP2;ratioP2;P2;SDS_P1;SDS_P2;PMS_P1;PMS_P2;Temp;Humidity;BMP_temperature;BMP_pressure;BME280_temperature;BME280_humidity;BME280_pressure;Samples;Min_cycle;Max_cycle;Signal;HPM_P1;HPM_P2
2021/09/08 00:00:25;;;;;;;3.00;2.70;;;;;;;24.74;57.80;99450.03;2064852;28;20583;-42
2021/09/08 00:01:26;;;;;;;2.60;2.40;;;;;;;24.74;57.67;99455.56;2057301;28;20125;-41
2021/09/08 00:02:26;;;;;;;2.50;2.27;;;;;;;24.75;57.93;99451.72;2061588;28;20788;-41
2021/09/08 00:03:26;;;;;;;5.50;2.50;;;;;;;24.74;57.70;99447.28;2056941;28;20606;-42
2021/09/08 00:04:27;;;;;;;2.77;2.47;;;;;;;24.74;57.87;99449.16;2060765;28;20379;-41
2021/09/08 00:05:28;;;;;;;4.17;2.40;;;;;;;24.74;57.88;99450.03;2052471;28;20047;-40
2021/09/08 00:06:28;;;;;;;2.43;2.23;;;;;;;24.73;57.96;99445.56;2055808;28;20438;-42
2021/09/08 00:07:28;;;;;;;2.70;2.10;;;;;;;24.74;58.06;99450.03;2066206;28;20330;-42
2021/09/08 00:08:29;;;;;;;2.67;2.23;;;;;;;24.74;57.71;99444.53;2058688;28;20516;-42
2021/09/08 00:09:29;;;;;;;3.23;2.83;;;;;;;24.73;57.73;99445.56;2059604;28;20021;-42
2021/09/08 00:10:30;;;;;;;2.43;2.23;;;;;;;24.73;57.89;99440.03;2065902;28;20088;-42
2021/09/08 00:11:31;;;;;;;2.57;2.37;;;;;;;24.74;57.81;99450.03;2058404;28;20142;-42
2021/09/08 00:12:32;;;;;;;3.30;2.43;;;;;;;24.73;57.84;99442.81;2066910;28;20038;-42
2021/09/08 00:13:32;;;;;;;3.63;2.28;;;;;;;24.74;58.03;99450.03;2055961;28;20058;-41
2021/09/08 00:14:33;;;;;;;2.90;2.50;;;;;;;24.74;58.04;99439.00;2059574;28;20038;-42
2021/09/08 00:15:34;;;;;;;2.70;2.50;;;;;;;24.74;57.75;99443.66;2057648;28;20093;-42
2021/09/08 00:16:34;;;;;;;3.77;2.43;;;;;;;24.74;57.82;99443.66;2059051;28;20117;-42
2021/09/08 00:17:35;;;;;;;2.97;2.57;;;;;;;24.74;57.81;99441.78;2055671;28;20045;-42
2021/09/08 00:18:35;;;;;;;3.13;2.50;;;;;;;24.74;57.61;99432.63;2057154;28;20040;-42
2021/09/08 00:19:36;;;;;;;3.50;2.50;;;;;;;24.73;57.80;99437.28;2062688;28;20333;-42
2021/09/08 00:20:36;;;;;;;3.97;2.67;;;;;;;24.73;57.71;99431.78;2056306;28;20059;-42
2021/09/08 00:21:37;;;;;;;2.67;2.47;;;;;;;24.73;57.76;99436.44;2065656;28;20367;-42
2021/09/08 00:22:38;;;;;;;2.73;2.47;;;;;;;24.74;57.68;99433.50;2058509;28;20033;-42
2021/09/08 00:23:38;;;;;;;3.30;2.45;;;;;;;24.75;57.96;99431.59;2063093;28;20399;-42
2021/09/08 00:24:39;;;;;;;2.57;2.30;;;;;;;24.74;57.70;99433.50;2059758;28;20117;-42
2021/09/08 00:25:39;;;;;;;3.00;2.70;;;;;;;24.75;58.03;99429.69;2060540;28;20060;-41
2021/09/08 00:26:40;;;;;;;3.17;2.63;;;;;;;24.74;57.96;99430.75;2064753;28;20106;-42
2021/09/08 00:27:41;;;;;;;2.70;2.17;;;;;;;24.74;57.91;99428.00;2057355;28;20040;-42
2021/09/08 00:28:41;;;;;;;3.38;3.08;;;;;;;24.74;57.98;99433.50;2065843;28;20061;-42
2021/09/08 00:29:42;;;;;;;3.90;2.70;;;;;;;24.74;57.78;99428.00;2055178;28;20398;-42
2021/09/08 00:30:42;;;;;;;3.00;2.70;;;;;;;24.74;58.04;99422.47;2060583;28;20036;-42
2021/09/08 00:31:43;;;;;;;3.67;2.63;;;;;;;24.74;58.05;99429.88;2067035;28;20044;-42
2021/09/08 00:32:43;;;;;;;3.17;2.47;;;;;;;24.72;57.72;99430.09;2059835;28;20026;-41
2021/09/08 00:33:44;;;;;;;2.60;2.33;;;;;;;24.73;57.91;99426.28;2065195;28;20439;-42
2021/09/08 00:34:44;;;;;;;2.53;2.33;;;;;;;24.72;57.93;99421.81;2059615;28;20030;-41
2021/09/08 00:35:45;;;;;;;2.43;2.23;;;;;;;24.74;57.89;99424.34;2062563;28;20123;-41
2021/09/08 00:36:45;;;;;;;2.50;2.30;;;;;;;24.73;57.99;99420.75;2056341;28;20092;-43
2021/09/08 00:37:45;;;;;;;2.53;2.33;;;;;;;24.74;58.01;99425.22;2059007;28;20147;-42
2021/09/08 00:38:46;;;;;;;2.63;2.43;;;;;;;24.74;57.83;99421.59;2060758;28;20085;-42
2021/09/08 00:39:46;;;;;;;3.10;2.50;;;;;;;24.73;57.69;99414.41;2059913;28;20447;-42
2021/09/08 00:40:47;;;;;;;2.40;2.20;;;;;;;24.72;57.74;99413.56;2059782;28;20033;-42
2021/09/08 00:41:48;;;;;;;3.30;3.00;;;;;;;24.73;57.72;99415.25;2059394;28;20034;-42
2021/09/08 00:42:48;;;;;;;3.70;2.13;;;;;;;24.73;57.87;99409.72;2065734;28;20431;-41
2021/09/08 00:43:49;;;;;;;2.57;2.33;;;;;;;24.73;58.03;99409.72;2060542;28;20029;-42
2021/09/08 00:44:50;;;;;;;2.55;2.35;;;;;;;24.73;57.99;99409.72;2059893;28;20113;-42
2021/09/08 00:45:55;;;;;;;2.47;2.27;;;;;;;24.72;57.75;99405.28;2065320;28;20091;-42
2021/09/08 00:46:56;;;;;;;3.03;2.63;;;;;;;24.72;57.90;99408.03;2058864;28;20443;-41
2021/09/08 00:47:57;;;;;;;2.45;2.20;;;;;;;24.73;57.99;99404.22;2064533;28;20098;-42
2021/09/08 00:48:57;;;;;;;2.80;2.50;;;;;;;24.73;57.83;99408.88;2059150;28;20049;-42
2021/09/08 00:49:58;;;;;;;2.40;2.20;;;;;;;24.72;57.85;99402.53;2063679;28;20040;-42
2021/09/08 00:50:58;;;;;;;4.20;2.50;;;;;;;24.73;57.80;99398.72;2057367;28;20040;-47
2021/09/08 00:52:06;;;;;;;2.43;2.23;;;;;;;24.72;57.82;99397.03;2060116;28;20128;-47
2021/09/08 00:53:07;;;;;;;2.78;2.15;;;;;;;24.73;57.67;99397.88;2060568;28;20454;-41
2021/09/08 00:54:14;;;;;;;2.27;2.07;;;;;;;24.73;57.84;99397.88;2060299;28;20034;-42
2021/09/08 00:55:14;;;;;;;3.28;2.38;;;;;;;24.73;58.05;99393.19;2057722;28;20033;-42
2021/09/08 00:56:15;;;;;;;3.20;2.23;;;;;;;24.73;57.96;99404.22;2060314;28;20443;-42
2021/09/08 00:57:18;;;;;;;2.37;2.10;;;;;;;24.74;57.79;99394.03;2065316;28;20420;-41
2021/09/08 00:58:18;;;;;;;3.33;2.55;;;;;;;24.73;57.94;99395.09;2062177;28;20429;-42
2021/09/08 00:59:20;;;;;;;5.23;3.33;;;;;;;24.72;57.98;99388.75;2057968;28;20057;-41
2021/09/08 01:00:20;;;;;;;4.10;2.58;;;;;;;24.72;57.79;99388.75;2068493;28;20037;-42
2021/09/08 01:01:21;;;;;;;2.83;2.50;;;;;;;24.73;57.75;99386.84;2060432;28;20432;-42
2021/09/08 01:02:22;;;;;;;2.47;2.27;;;;;;;24.73;57.83;99390.44;2063797;28;20340;-42
2021/09/08 01:03:23;;;;;;;2.77;2.50;;;;;;;24.72;57.87;99380.47;2059637;28;20273;-42
2021/09/08 01:04:23;;;;;;;2.33;2.13;;;;;;;24.73;57.67;99384.09;2058252;28;20033;-41
2021/09/08 01:05:25;;;;;;;2.63;2.43;;;;;;;24.73;57.95;99375.81;2054964;28;20087;-43
2021/09/08 01:06:26;;;;;;;3.03;2.50;;;;;;;24.73;57.80;99376.66;2058173;28;20287;-42
2021/09/08 01:07:26;;;;;;;2.83;2.50;;;;;;;24.73;58.07;99367.53;2060332;28;20526;-42
2021/09/08 01:08:27;;;;;;;3.33;2.30;;;;;;;24.73;57.98;99371.16;2056320;28;20578;-42
2021/09/08 01:09:28;;;;;;;2.43;2.10;;;;;;;24.71;58.15;99367.75;2061784;28;20052;-42
2021/09/08 01:10:29;;;;;;;3.30;2.80;;;;;;;24.73;57.80;99373.91;2060015;28;20226;-42
2021/09/08 01:11:29;;;;;;;2.50;2.30;;;;;;;24.72;57.95;99374.97;2064963;28;20154;-41
2021/09/08 01:12:30;;;;;;;2.67;2.07;;;;;;;24.72;57.75;99369.47;2061046;28;20029;-41
2021/09/08 01:13:30;;;;;;;2.50;2.30;;;;;;;24.72;57.85;99369.47;2058909;28;20632;-42
2021/09/08 01:14:30;;;;;;;2.53;2.20;;;;;;;24.72;57.90;99374.97;2061341;28;20040;-42
2021/09/08 01:15:31;;;;;;;3.40;2.50;;;;;;;24.73;57.90;99375.81;2059874;28;20579;-42
2021/09/08 01:16:31;;;;;;;3.50;2.50;;;;;;;24.73;57.64;99370.31;2059587;28;20033;-43
2021/09/08 01:17:32;;;;;;;2.60;2.40;;;;;;;24.72;57.72;99377.72;2055699;28;20045;-41
2021/09/08 01:18:33;;;;;;;3.80;2.43;;;;;;;24.73;57.83;99379.41;2057877;28;20037;-42
2021/09/08 01:19:34;;;;;;;3.38;2.20;;;;;;;24.73;58.06;99375.81;2063506;28;20037;-40
2021/09/08 01:20:35;;;;;;;3.65;2.63;;;;;;;24.73;57.89;99376.66;2058929;28;20042;-42
2021/09/08 01:21:35;;;;;;;3.23;2.63;;;;;;;24.73;57.74;99371.16;2060091;28;20446;-42
2021/09/08 01:23:02;;;;;;;3.13;2.17;;;;;;;24.70;57.71;99377.06;2058359;28;20038;-41
2021/09/08 01:24:05;;;;;;;2.47;2.28;;;;;;;24.71;57.83;99378.75;2054557;28;20640;-42
2021/09/08 01:25:05;;;;;;;4.50;2.60;;;;;;;24.72;58.00;99380.47;2061534;28;20036;-42
2021/09/08 01:26:06;;;;;;;2.80;2.40;;;;;;;24.72;57.95;99377.72;2071886;28;20044;-42
2021/09/08 01:27:06;;;;;;;2.73;2.20;;;;;;;24.72;58.00;99380.47;2069928;28;20076;-42
2021/09/08 01:28:07;;;;;;;3.23;2.50;;;;;;;24.72;57.84;99386.00;2061125;28;20460;-42
2021/09/08 01:29:08;;;;;;;2.70;2.50;;;;;;;24.71;57.88;99378.75;2062099;28;20029;-42
2021/09/08 01:30:09;;;;;;;2.45;2.25;;;;;;;24.72;57.99;99386.00;2063678;28;20439;-42
2021/09/08 01:31:10;;;;;;;3.90;2.13;;;;;;;24.73;57.86;99386.84;2057274;28;20730;-42
2021/09/08 01:32:10;;;;;;;2.50;2.30;;;;;;;24.73;57.73;99387.69;2064722;28;20022;-42
2021/09/08 01:33:13;;;;;;;3.30;2.40;;;;;;;24.72;57.75;99385.13;2059276;28;20804;-41
2021/09/08 01:34:13;;;;;;;2.83;2.58;;;;;;;24.72;57.91;99380.47;2059807;28;20065;-42
2021/09/08 01:35:15;;;;;;;2.70;2.10;;;;;;;24.72;57.92;99386.00;2057518;28;20431;-41
2021/09/08 01:36:16;;;;;;;2.97;2.53;;;;;;;24.73;57.83;99382.16;2057425;28;20116;-42
2021/09/08 01:37:18;;;;;;;3.10;2.80;;;;;;;24.73;57.74;99387.69;2061557;28;20037;-41
2021/09/08 01:38:18;;;;;;;2.95;2.60;;;;;;;24.73;57.87;99382.16;2059764;28;20029;-42
2021/09/08 01:39:20;;;;;;;2.50;2.10;;;;;;;24.73;57.92;99378.56;2060443;28;20269;-42
2021/09/08 01:40:21;;;;;;;3.72;2.28;;;;;;;24.72;57.95;99380.47;2058076;28;20123;-41
2021/09/08 01:41:22;;;;;;;2.63;2.27;;;;;;;24.72;57.96;99385.13;2061046;28;20060;-42
2021/09/08 01:42:22;;;;;;;3.17;2.33;;;;;;;24.73;57.97;99384.94;2058499;28;20026;-42
2021/09/08 01:43:24;;;;;;;3.47;2.40;;;;;;;24.72;58.04;99374.97;2059610;28;20022;-42
2021/09/08 01:44:25;;;;;;;;;;;;;;;24.68;57.84;99376.41;2059210;28;20053;-42
2021/09/08 01:45:25;;;;;;;4.15;2.25;;;;;;;24.69;58.21;99380.03;2058235;28;20129;-42
2021/09/08 01:46:25;;;;;;;4.00;2.33;;;;;;;24.70;57.79;99388.09;2061701;28;20033;-42
2021/09/08 01:47:26;;;;;;;2.63;2.07;;;;;;;24.70;58.01;99382.59;2054543;28;20133;-42
2021/09/08 01:48:27;;;;;;;2.77;2.57;;;;;;;24.71;58.16;99388.94;2057610;28;20050;-41
2021/09/08 01:49:27;;;;;;;2.80;2.50;;;;;;;24.70;57.97;99382.59;2062769;28;20475;-42
2021/09/08 01:50:27;;;;;;;3.67;2.60;;;;;;;24.72;57.86;99385.13;2064619;28;20726;-42
2021/09/08 01:51:28;;;;;;;2.90;2.50;;;;;;;24.71;58.08;99384.28;2057118;28;20022;-42
2021/09/08 01:52:28;;;;;;;2.73;2.30;;;;;;;24.71;58.00;99377.91;2058379;28;20099;-41
2021/09/08 01:53:29;;;;;;;2.50;2.30;;;;;;;24.70;57.78;99377.06;2053702;28;20038;-41
2021/09/08 01:54:30;;;;;;;2.53;2.30;;;;;;;24.71;57.89;99387.03;2056147;28;20441;-42
2021/09/08 01:55:31;;;;;;;3.28;2.55;;;;;;;24.71;57.98;99381.50;2056200;28;20025;-42
2021/09/08 01:56:31;;;;;;;4.40;2.93;;;;;;;24.71;57.73;99383.44;2058995;28;20044;-41
2021/09/08 01:57:32;;;;;;;3.00;2.23;;;;;;;24.72;57.89;99385.13;2060880;28;20065;-42
2021/09/08 01:58:33;;;;;;;2.42;2.17;;;;;;;24.72;57.67;99383.25;2056276;28;20109;-42
2021/09/08 01:59:34;;;;;;;2.43;2.20;;;;;;;24.71;57.79;99381.50;2059172;28;20058;-42
2021/09/08 02:00:34;;;;;;;2.57;2.37;;;;;;;24.72;57.87;99386.00;2062882;28;20113;-41
2021/09/08 02:01:35;;;;;;;2.83;2.50;;;;;;;24.72;57.70;99379.59;2061043;28;20113;-42
2021/09/08 02:02:35;;;;;;;3.23;2.70;;;;;;;24.72;57.98;99385.13;2057544;28;20037;-42
2021/09/08 02:03:36;;;;;;;2.63;2.43;;;;;;;24.71;57.83;99378.75;2060840;28;20565;-41
2021/09/08 02:04:36;;;;;;;3.67;2.40;;;;;;;24.72;57.99;99385.13;2062841;28;20025;-43
2021/09/08 02:05:37;;;;;;;3.37;2.40;;;;;;;24.71;58.13;99387.03;2053505;28;20030;-42
2021/09/08 02:06:49;;;;;;;3.37;2.37;;;;;;;24.71;58.10;99388.94;2058593;28;20104;-42
2021/09/08 02:07:50;;;;;;;4.10;2.75;;;;;;;24.70;57.93;99385.34;2056025;28;20033;-42
2021/09/08 02:08:58;;;;;;;2.77;2.23;;;;;;;24.71;58.06;99384.28;2060415;28;20030;-41
2021/09/08 02:09:58;;;;;;;2.45;2.08;;;;;;;24.71;57.91;99383.44;2055974;28;20029;-42
2021/09/08 02:10:59;;;;;;;3.47;2.90;;;;;;;24.71;58.04;99381.50;2061521;28;20051;-42
2021/09/08 02:11:59;;;;;;;2.83;2.57;;;;;;;24.70;57.78;99385.34;2061687;28;20029;-42
2021/09/08 02:12:59;;;;;;;2.50;2.30;;;;;;;24.71;57.89;99383.44;2054935;28;20038;-42
2021/09/08 02:14:00;;;;;;;2.40;2.20;;;;;;;24.70;57.69;99385.34;2063491;28;20033;-42
2021/09/08 02:15:01;;;;;;;3.23;2.93;;;;;;;24.71;58.13;99378.75;2058808;28;20049;-42
2021/09/08 02:16:01;;;;;;;4.00;2.37;;;;;;;24.71;57.97;99383.44;2057967;28;20393;-41
2021/09/08 02:17:02;;;;;;;2.30;2.10;;;;;;;24.70;57.71;99379.84;2061024;28;20030;-42
2021/09/08 02:18:03;;;;;;;3.07;2.30;;;;;;;24.71;57.97;99378.75;2058681;28;20037;-42
2021/09/08 02:19:04;;;;;;;2.50;2.23;;;;;;;24.72;57.83;99383.25;2065913;28;20368;-41
2021/09/08 02:20:05;;;;;;;3.40;3.10;;;;;;;24.72;58.07;99374.97;2068476;28;20635;-42
2021/09/08 02:21:06;;;;;;;2.90;2.60;;;;;;;24.71;57.92;99378.75;2056065;28;20072;-40
2021/09/08 02:22:06;;;;;;;3.37;2.50;;;;;;;24.71;58.07;99378.75;2068570;28;20249;-42
2021/09/08 02:23:07;;;;;;;3.40;2.67;;;;;;;24.70;58.06;99377.06;2057528;28;20026;-42
2021/09/08 02:24:07;;;;;;;2.20;2.00;;;;;;;24.70;58.19;99374.31;2064329;28;20029;-40
2021/09/08 02:25:08;;;;;;;2.50;2.30;;;;;;;24.71;57.83;99378.75;2061248;28;20736;-41
2021/09/08 02:26:08;;;;;;;3.53;2.43;;;;;;;24.70;57.70;99374.31;2057625;28;20046;-42
2021/09/08 02:27:10;;;;;;;2.90;2.13;;;;;;;24.71;57.84;99373.25;2060623;28;20256;-41
2021/09/08 02:28:11;;;;;;;;;;;;;;;24.67;57.90;99377.50;2060627;28;20494;-42
2021/09/08 02:29:12;;;;;;;5.15;2.30;;;;;;;24.68;57.91;99370.06;2061861;28;20334;-42
2021/09/08 02:30:13;;;;;;;;;;;;;;;24.65;58.12;99374.09;2059893;28;20014;-42
2021/09/08 02:31:13;;;;;;;2.78;2.30;;;;;;;24.66;58.06;99370.25;2053019;28;19909;-42
2021/09/08 02:32:14;;;;;;;4.10;2.13;;;;;;;24.66;58.16;99370.25;2060611;28;20156;-42
2021/09/08 02:33:16;;;;;;;2.83;2.43;;;;;;;24.66;57.96;99370.25;2064612;28;20029;-43
2021/09/08 02:34:17;;;;;;;2.88;2.53;;;;;;;24.67;57.78;99362.84;2056879;28;20064;-42
2021/09/08 02:35:18;;;;;;;2.63;2.40;;;;;;;24.68;58.15;99365.41;2059312;28;20359;-42
2021/09/08 02:36:20;;;;;;;2.30;2.10;;;;;;;24.69;57.88;99363.50;2059202;28;20072;-41
2021/09/08 02:37:20;;;;;;;3.03;2.08;;;;;;;24.68;57.87;99368.16;2059108;28;20370;-42
2021/09/08 02:38:21;;;;;;;2.77;2.10;;;;;;;24.68;57.80;99362.66;2055439;28;20435;-42
2021/09/08 02:39:21;;;;;;;3.57;2.40;;;;;;;24.69;57.99;99364.34;2060915;28;20144;-42
2021/09/08 02:40:22;;;;;;;2.83;2.33;;;;;;;24.69;57.95;99363.50;2062373;28;20065;-42
2021/09/08 02:41:24;;;;;;;3.03;2.33;;;;;;;24.70;57.78;99366.06;2066435;28;20115;-44
2021/09/08 02:42:24;;;;;;;;;;;;;;;24.65;58.17;99357.56;2059466;28;20032;-41
2021/09/08 02:43:24;;;;;;;2.65;2.28;;;;;;;24.67;57.97;99360.97;2060488;28;19917;-42
2021/09/08 02:44:25;;;;;;;2.30;2.10;;;;;;;24.67;57.95;99358.19;2056995;28;20337;-42
2021/09/08 02:45:25;;;;;;;2.53;2.33;;;;;;;24.67;58.07;99363.72;2060359;28;20024;-42
2021/09/08 02:46:26;;;;;;;2.50;2.10;;;;;;;24.70;57.84;99359.69;2065264;28;20171;-42
2021/09/08 02:47:26;;;;;;;2.50;2.30;;;;;;;24.69;57.75;99358.81;2057091;28;20037;-41
2021/09/08 02:48:27;;;;;;;2.83;2.30;;;;;;;24.68;57.96;99357.13;2063493;28;20046;-42
2021/09/08 02:49:27;;;;;;;2.67;2.33;;;;;;;24.68;58.04;99357.13;2057703;28;20402;-42
2021/09/08 02:50:28;;;;;;;3.73;2.97;;;;;;;24.69;57.85;99355.22;2057864;28;20040;-41
2021/09/08 02:51:28;;;;;;;2.93;2.63;;;;;;;24.69;57.78;99358.81;2059469;28;20357;-42
2021/09/08 02:52:29;;;;;;;2.50;2.17;;;;;;;24.69;58.07;99358.81;2060982;28;20574;-42
2021/09/08 02:53:30;;;;;;;2.60;2.40;;;;;;;24.69;57.84;99358.81;2057984;28;20115;-42
2021/09/08 02:54:30;;;;;;;3.55;2.72;;;;;;;24.69;57.85;99358.81;2060155;28;20042;-42
2021/09/08 02:55:31;;;;;;;2.93;2.47;;;;;;;24.70;57.86;99355.03;2058930;28;20184;-42
2021/09/08 02:56:31;;;;;;;3.20;2.20;;;;;;;24.69;58.18;99358.81;2058056;28;20431;-42
2021/09/08 02:57:32;;;;;;;3.03;2.70;;;;;;;24.69;57.88;99353.31;2056425;28;20030;-42
2021/09/08 02:58:32;;;;;;;3.07;2.60;;;;;;;24.70;58.00;99355.03;2058033;28;20088;-42
2021/09/08 02:59:33;;;;;;;2.93;2.13;;;;;;;24.70;57.80;99348.66;2057267;28;20135;-42
2021/09/08 03:00:34;;;;;;;2.23;2.03;;;;;;;24.70;58.01;99348.66;2056654;28;20033;-42
2021/09/08 03:01:34;;;;;;;2.70;2.28;;;;;;;24.69;58.00;99347.78;2062011;28;20026;-41
2021/09/08 03:02:35;;;;;;;2.70;2.10;;;;;;;24.69;57.84;99346.94;2060913;28;20038;-42
2021/09/08 03:03:35;;;;;;;3.10;2.27;;;;;;;24.69;57.95;99346.94;2058966;28;20567;-42
2021/09/08 03:04:36;;;;;;;2.40;2.03;;;;;;;24.69;57.75;99342.28;2055613;28;20021;-42
2021/09/08 03:05:37;;;;;;;2.37;2.17;;;;;;;24.69;57.90;99345.03;2058950;28;20460;-41
2021/09/08 03:06:37;;;;;;;2.80;2.50;;;;;;;24.69;57.80;99347.78;2059641;28;20330;-42
2021/09/08 03:07:38;;;;;;;2.40;2.20;;;;;;;24.70;58.00;99354.19;2057510;28;20023;-41
2021/09/08 03:08:38;;;;;;;3.13;2.30;;;;;;;24.70;57.90;99351.44;2060468;28;20018;-41
2021/09/08 03:09:38;;;;;;;2.70;2.50;;;;;;;24.69;57.92;99350.56;2057109;28;20034;-42
2021/09/08 03:10:40;;;;;;;3.07;2.50;;;;;;;24.70;57.92;99349.53;2060265;28;20072;-41
2021/09/08 03:11:40;;;;;;;5.55;2.53;;;;;;;24.70;57.76;99349.53;2056818;28;20624;-42
2021/09/08 03:12:41;;;;;;;4.10;2.30;;;;;;;24.69;57.88;99350.56;2057733;28;20042;-41
2021/09/08 03:13:41;;;;;;;2.30;2.10;;;;;;;24.69;58.10;99353.31;2054334;28;20038;-41
2021/09/08 03:14:42;;;;;;;3.43;2.30;;;;;;;24.69;57.91;99350.56;2056634;28;20451;-42
2021/09/08 03:15:42;;;;;;;2.30;2.10;;;;;;;24.70;58.00;99348.66;2059717;28;20026;-40
2021/09/08 03:16:43;;;;;;;2.60;2.40;;;;;;;24.70;58.07;99349.53;2059634;28;20501;-42
2021/09/08 03:17:43;;;;;;;2.70;2.47;;;;;;;24.70;57.76;99354.19;2057036;28;20668;-42
2021/09/08 03:18:43;;;;;;;2.67;2.30;;;;;;;24.69;57.85;99346.94;2055084;28;20393;-41
2021/09/08 03:19:44;;;;;;;2.67;2.30;;;;;;;24.69;57.83;99353.31;2059906;28;20538;-42
2021/09/08 03:20:44;;;;;;;3.13;2.53;;;;;;;24.69;57.82;99342.28;2058033;28;20040;-41
2021/09/08 03:21:45;;;;;;;2.60;2.40;;;;;;;24.69;58.00;99338.69;2060233;28;20044;-42
2021/09/08 03:22:46;;;;;;;2.60;2.40;;;;;;;24.70;58.06;99349.53;2058449;28;20097;-42
2021/09/08 03:23:46;;;;;;;3.40;2.20;;;;;;;24.68;57.96;99343.34;2063422;28;20033;-42
2021/09/08 03:24:47;;;;;;;2.87;2.30;;;;;;;24.68;57.77;99335.09;2056876;28;20037;-41
2021/09/08 03:25:47;;;;;;;2.23;2.03;;;;;;;24.69;58.15;99336.78;2062139;28;20029;-42
2021/09/08 03:26:48;;;;;;;2.27;2.00;;;;;;;24.69;57.87;99336.78;2060112;28;20121;-42
2021/09/08 03:27:48;;;;;;;3.70;2.47;;;;;;;24.69;57.79;99330.41;2058178;28;20117;-42
2021/09/08 03:28:49;;;;;;;2.93;2.67;;;;;;;24.68;58.08;99324.06;2057284;28;20041;-42
2021/09/08 03:29:51;;;;;;;2.50;2.30;;;;;;;24.69;58.06;99331.25;2058140;28;20025;-42
2021/09/08 03:30:51;;;;;;;2.92;2.63;;;;;;;24.67;57.86;99322.38;2058350;28;20334;-42
2021/09/08 03:31:52;;;;;;;4.57;2.40;;;;;;;24.68;57.97;99329.56;2054988;28;20034;-42
2021/09/08 03:32:52;;;;;;;3.00;2.20;;;;;;;24.69;57.78;99331.25;2062806;28;20038;-41
2021/09/08 03:33:53;;;;;;;3.20;2.53;;;;;;;24.69;57.96;99325.75;2059452;28;20037;-41
2021/09/08 03:34:53;;;;;;;2.83;2.40;;;;;;;24.68;57.81;99324.06;2060970;28;20060;-42
2021/09/08 03:35:54;;;;;;;2.60;2.40;;;;;;;24.69;58.02;99331.25;2059949;28;20034;-42
2021/09/08 03:36:54;;;;;;;3.50;2.47;;;;;;;24.68;58.08;99324.06;2061262;28;20105;-42
2021/09/08 03:37:55;;;;;;;2.50;2.23;;;;;;;24.69;57.86;99324.91;2055013;28;20022;-42
2021/09/08 03:38:55;;;;;;;3.23;2.57;;;;;;;24.67;57.75;99325.13;2055928;28;20129;-42
2021/09/08 03:39:56;;;;;;;2.57;2.23;;;;;;;24.68;58.02;99323.22;2053631;28;20025;-42
2021/09/08 03:40:57;;;;;;;2.95;2.10;;;;;;;24.67;57.79;99316.88;2056520;28;20065;-41
2021/09/08 03:41:57;;;;;;;2.50;2.30;;;;;;;24.69;58.14;99316.63;2059036;28;20065;-42
2021/09/08 03:42:58;;;;;;;3.40;2.43;;;;;;;24.68;57.96;99313.03;2056549;28;20030;-42
2021/09/08 03:43:58;;;;;;;4.30;2.50;;;;;;;24.68;58.08;99315.78;2055958;28;20092;-41
2021/09/08 03:44:59;;;;;;;4.23;2.60;;;;;;;24.68;57.94;99313.03;2055424;28;20099;-42
2021/09/08 03:46:04;;;;;;;3.57;2.43;;;;;;;24.69;57.90;99316.63;2056326;28;20084;-42
2021/09/08 03:47:05;;;;;;;2.72;2.50;;;;;;;24.68;57.89;99315.78;2057870;28;20946;-42
2021/09/08 03:48:05;;;;;;;2.70;2.40;;;;;;;24.67;57.80;99322.38;2058964;28;20129;-46
2021/09/08 03:49:06;;;;;;;2.73;2.30;;;;;;;24.67;58.01;99325.13;2058834;28;20030;-42
2021/09/08 03:50:07;;;;;;;4.17;2.60;;;;;;;24.68;58.09;99315.78;2057129;28;20332;-42
2021/09/08 03:51:10;;;;;;;2.20;2.00;;;;;;;24.67;58.17;99314.09;2059041;28;20094;-42
2021/09/08 03:52:21;;;;;;;2.38;2.17;;;;;;;24.67;57.94;99319.63;2062300;28;20040;-41
2021/09/08 03:53:21;;;;;;;2.83;2.63;;;;;;;24.67;57.85;99318.75;2058951;28;20022;-42
2021/09/08 03:54:21;;;;;;;2.57;2.17;;;;;;;24.67;57.85;99316.00;2061174;28;20682;-42
2021/09/08 03:55:22;;;;;;;2.27;2.07;;;;;;;24.67;57.99;99316.88;2059583;28;20026;-42
2021/09/08 03:56:22;;;;;;;2.57;2.07;;;;;;;24.67;58.01;99311.34;2058350;28;20434;-42
2021/09/08 03:57:23;;;;;;;2.77;2.10;;;;;;;24.67;57.89;99314.09;2058891;28;20511;-42
2021/09/08 03:58:23;;;;;;;2.53;2.20;;;;;;;24.67;57.88;99308.59;2056022;28;20057;-41
2021/09/08 03:59:24;;;;;;;4.23;2.67;;;;;;;24.67;58.03;99311.34;2059001;28;20056;-43
2021/09/08 04:00:24;;;;;;;3.53;2.30;;;;;;;24.66;57.97;99308.78;2058217;28;20080;-42
2021/09/08 04:01:24;;;;;;;2.20;2.00;;;;;;;24.67;58.11;99307.72;2059861;28;20083;-41
2021/09/08 04:02:25;;;;;;;2.83;1.80;;;;;;;24.67;57.85;99305.84;2059775;28;20045;-42
2021/09/08 04:03:25;;;;;;;3.70;2.70;;;;;;;24.67;57.96;99305.84;2057429;28;20025;-42
2021/09/08 04:04:26;;;;;;;2.43;2.23;;;;;;;24.67;58.10;99299.47;2062142;28;20361;-42
2021/09/08 04:05:26;;;;;;;3.73;2.30;;;;;;;24.65;58.12;99296.94;2059860;28;20030;-42
2021/09/08 04:06:27;;;;;;;2.83;2.43;;;;;;;24.65;57.94;99288.66;2059519;28;20060;-42
2021/09/08 04:07:27;;;;;;;3.00;2.40;;;;;;;24.66;58.11;99295.00;2057985;28;20379;-42
2021/09/08 04:08:28;;;;;;;2.37;2.17;;;;;;;24.66;58.13;99301.38;2059340;28;20331;-41
2021/09/08 04:09:28;;;;;;;3.97;2.27;;;;;;;24.66;58.06;99301.38;2059390;28;20026;-42
2021/09/08 04:10:29;;;;;;;2.77;2.50;;;;;;;24.67;58.13;99293.94;2058087;28;20037;-42
2021/09/08 04:11:29;;;;;;;2.73;2.17;;;;;;;24.66;57.95;99298.63;2059421;28;20403;-42
2021/09/08 04:12:30;;;;;;;3.37;2.93;;;;;;;24.67;57.82;99304.97;2055731;28;20034;-42
2021/09/08 04:13:30;;;;;;;3.47;2.60;;;;;;;24.67;57.84;99303.09;2056646;28;20044;-42
2021/09/08 04:14:31;;;;;;;2.33;2.13;;;;;;;24.67;58.01;99308.59;2052659;28;20112;-42
2021/09/08 04:15:33;;;;;;;3.40;2.53;;;;;;;24.66;57.94;99304.13;2062328;28;20030;-42
2021/09/08 04:16:33;;;;;;;;;;;;;;;24.62;58.05;99304.72;2060845;28;20053;-41
2021/09/08 04:17:33;;;;;;;2.78;2.33;;;;;;;24.63;58.18;99315.56;2062617;28;20563;-42
2021/09/08 04:18:34;;;;;;;3.03;2.27;;;;;;;24.64;58.00;99311.75;2063397;28;20120;-42
2021/09/08 04:19:35;;;;;;;2.40;2.20;;;;;;;24.64;57.89;99311.75;2060251;28;20081;-42
2021/09/08 04:20:35;;;;;;;2.83;2.50;;;;;;;24.64;58.12;99308.16;2062917;28;20606;-41
2021/09/08 04:21:36;;;;;;;2.47;2.20;;;;;;;24.65;58.13;99301.59;2057923;28;20080;-42
2021/09/08 04:22:36;;;;;;;2.70;2.50;;;;;;;24.65;58.09;99307.94;2061028;28;20033;-42
2021/09/08 04:23:37;;;;;;;3.17;2.30;;;;;;;24.66;57.87;99308.78;2059269;28;20479;-42
2021/09/08 04:24:37;;;;;;;2.43;2.23;;;;;;;24.66;57.89;99309.63;2059563;28;20025;-41
2021/09/08 04:25:38;;;;;;;4.33;2.70;;;;;;;24.65;57.87;99307.09;2061762;28;20463;-41
2021/09/08 04:26:38;;;;;;;2.90;2.30;;;;;;;24.66;57.87;99304.13;2055380;28;20432;-41
2021/09/08 04:27:39;;;;;;;2.67;2.37;;;;;;;24.65;58.15;99301.59;2063283;28;20029;-42
2021/09/08 04:28:39;;;;;;;3.50;2.23;;;;;;;24.65;57.89;99305.19;2057201;28;20085;-42
2021/09/08 04:29:40;;;;;;;4.30;2.43;;;;;;;24.66;57.95;99301.38;2060055;28;20825;-41
2021/09/08 04:30:40;;;;;;;2.73;2.43;;;;;;;24.67;57.97;99304.97;2064152;28;20059;-41
2021/09/08 04:31:41;;;;;;;3.03;2.50;;;;;;;24.65;58.02;99302.44;2058121;28;20061;-40
2021/09/08 04:32:41;;;;;;;2.57;2.20;;;;;;;24.65;58.18;99299.69;2063057;28;20406;-43
2021/09/08 04:33:42;;;;;;;2.77;2.57;;;;;;;24.66;57.97;99301.38;2058853;28;20420;-42
2021/09/08 04:34:42;;;;;;;3.33;2.30;;;;;;;24.66;57.88;99304.13;2059410;28;20092;-42
2021/09/08 04:35:42;;;;;;;2.47;2.27;;;;;;;24.66;58.06;99306.88;2061305;28;20029;-41
2021/09/08 04:36:43;;;;;;;2.47;2.00;;;;;;;24.66;57.92;99306.88;2061710;28;20028;-42
2021/09/08 04:37:43;;;;;;;2.40;2.20;;;;;;;24.66;58.08;99311.56;2057683;28;20409;-41
2021/09/08 04:38:46;;;;;;;2.83;2.50;;;;;;;24.66;58.21;99309.63;2059089;28;20022;-42
2021/09/08 04:39:47;;;;;;;2.53;2.28;;;;;;;24.65;57.87;99307.94;2057235;28;20049;-40
2021/09/08 04:40:47;;;;;;;2.77;2.53;;;;;;;24.66;57.81;99304.13;2058495;28;20270;-42
2021/09/08 04:41:48;;;;;;;3.83;2.93;;;;;;;24.66;58.12;99309.63;2062233;28;20435;-42
2021/09/08 04:42:49;;;;;;;2.87;2.67;;;;;;;24.66;58.16;99306.03;2053335;28;20111;-42
2021/09/08 04:43:49;;;;;;;2.43;2.07;;;;;;;24.66;58.00;99304.13;2061802;28;20863;-41
2021/09/08 04:44:49;;;;;;;2.30;2.10;;;;;;;24.66;58.04;99308.78;2059787;28;20395;-41
2021/09/08 04:45:50;;;;;;;2.27;2.07;;;;;;;24.65;58.03;99305.19;2058462;28;20092;-41
2021/09/08 04:46:50;;;;;;;2.43;2.23;;;;;;;24.65;58.06;99307.94;2060114;28;20490;-42